Terminal Aerodrome Forecast
Issued by NWS Sterling, VA

Current Version | Previous Version | Graphics & Text | Print | Product List | Glossary On
Versions: 1 2 3 4 5 6 7 8 9 10 11 12 13 14 15 16 17 18 19 20 21 22 23 24
000
FTUS41 KLWX 131800 AAA
TAFIAD
TAF AMD
KIAD 131837Z 1319/1424 32003KT 5SM BR SCT005 BKN020 OVC035
     FM132000 32005KT P6SM OVC035
     FM140000 33004KT P6SM SCT250
     FM140300 33008KT P6SM FEW250
     FM141200 35004KT P6SM FEW250=

USA.gov is the U.S. government's official web portal to all federal, state and local government web resources and services.